createdAt,value
2023-11-23T04:14:38.567Z,76.32
2023-11-23T04:17:05.984Z,76.70
2023-11-23T04:19:55.735Z,76.56
2023-11-23T04:22:22.952Z,76.45
2023-11-23T04:24:50.821Z,76.11
2023-11-23T04:27:20.050Z,75.81
2023-11-23T04:29:49.220Z,75.06
2023-11-23T04:32:23.954Z,75.30
2023-11-23T04:34:50.822Z,76.03
2023-11-23T04:37:19.003Z,76.42
2023-11-23T04:39:46.027Z,76.81
2023-11-23T04:42:13.763Z,77.69
2023-11-23T04:44:41.913Z,78.05
2023-11-23T04:47:11.208Z,77.50
2023-11-23T04:49:38.337Z,78.77
2023-11-23T04:52:06.855Z,77.11
2023-11-23T04:54:35.697Z,77.27
2023-11-23T04:57:02.802Z,78.07
2023-11-23T04:59:29.576Z,78.19
2023-11-23T05:01:57.097Z,77.98
2023-11-23T05:04:35.898Z,78.25
2023-11-23T05:07:02.840Z,78.28
2023-11-23T05:09:29.807Z,78.43
2023-11-23T05:11:59.852Z,77.54
2023-11-23T05:14:26.830Z,77.93
2023-11-23T05:16:53.947Z,77.39
2023-11-23T05:19:31.812Z,78.30
2023-11-23T05:22:06.732Z,77.90
2023-11-23T05:24:33.837Z,77.74
2023-11-23T05:27:00.992Z,77.34
2023-11-23T05:29:29.641Z,77.61
2023-11-23T05:31:58.019Z,77.19
2023-11-23T05:34:26.963Z,77.46
2023-11-23T05:36:56.067Z,77.43
2023-11-23T05:39:42.730Z,77.32
2023-11-23T05:42:18.989Z,77.58
2023-11-23T05:45:10.585Z,77.50
2023-11-23T05:47:38.466Z,77.32
2023-11-23T05:50:12.829Z,76.66
2023-11-23T05:52:41.074Z,76.65
2023-11-23T05:55:08.954Z,76.86
2023-11-23T05:57:40.845Z,76.71
2023-11-23T06:00:32.468Z,76.79
2023-11-23T06:02:59.611Z,76.17
2023-11-23T06:05:26.777Z,76.43
2023-11-23T06:07:54.004Z,77.44
2023-11-23T06:10:21.439Z,77.59
2023-11-23T06:12:48.462Z,77.32
2023-11-23T06:15:15.471Z,78.93
2023-11-23T06:17:42.503Z,79.25
2023-11-23T06:20:09.910Z,78.74
2023-11-23T06:22:36.866Z,78.02
2023-11-23T06:25:05.128Z,79.22
2023-11-23T06:27:33.417Z,79.79
2023-11-23T06:30:00.709Z,79.01
2023-11-23T06:32:27.921Z,78.60
2023-11-23T06:34:54.822Z,77.83
2023-11-23T06:37:21.871Z,78.58
2023-11-23T06:39:48.930Z,79.09
2023-11-23T06:42:15.856Z,78.74
2023-11-23T06:44:42.809Z,79.12
2023-11-23T06:47:09.662Z,78.21
2023-11-23T06:49:36.620Z,79.08
2023-11-23T06:52:03.817Z,79.71
2023-11-23T06:54:30.803Z,79.31
2023-11-23T06:56:58.550Z,79.59
2023-11-23T06:59:25.685Z,79.01
2023-11-23T07:01:52.660Z,79.20
2023-11-23T07:04:19.630Z,79.29
2023-11-23T07:06:46.597Z,79.28
2023-11-23T07:09:15.188Z,79.14
2023-11-23T07:11:42.284Z,79.02
2023-11-23T07:14:09.281Z,79.61
2023-11-23T07:17:13.988Z,78.64
2023-11-23T07:20:11.296Z,77.08
2023-11-23T07:22:48.329Z,75.39
2023-11-23T07:25:20.861Z,76.36
2023-11-23T07:27:57.504Z,76.60
2023-11-23T07:34:41.265Z,73.68
2023-11-23T07:37:16.223Z,71.40
2023-11-23T07:39:51.259Z,72.36
2023-11-23T07:42:23.159Z,71.75
2023-11-23T07:45:20.690Z,73.24
2023-11-23T07:47:58.045Z,74.09
2023-11-23T07:50:27.573Z,74.07
2023-11-23T07:52:58.685Z,74.05
2023-11-23T07:55:47.285Z,74.38
2023-11-23T07:58:19.412Z,75.09
2023-11-23T08:00:48.882Z,74.60
2023-11-23T08:03:16.192Z,74.40
2023-11-23T08:05:49.304Z,73.84
2023-11-23T08:08:19.608Z,73.03
2023-11-23T08:10:58.094Z,74.17
2023-11-23T08:13:30.956Z,73.91
2023-11-23T08:16:30.761Z,74.05
2023-11-23T08:19:49.770Z,73.45
2023-11-23T08:22:20.768Z,73.89
2023-11-23T08:24:52.321Z,73.33
2023-11-23T08:27:19.418Z,72.21
2023-11-23T08:29:47.444Z,72.67
2023-11-23T08:32:16.628Z,73.34
2023-11-23T08:34:45.018Z,73.42
2023-11-23T08:37:12.538Z,74.20
2023-11-23T08:39:41.351Z,73.83
2023-11-23T08:42:08.862Z,73.71
2023-11-23T08:44:36.368Z,73.88
2023-11-23T08:47:03.802Z,74.35
2023-11-23T08:49:32.534Z,74.09
2023-11-23T08:51:59.767Z,73.62
2023-11-23T08:54:26.836Z,74.25
2023-11-23T08:56:57.677Z,74.38
2023-11-23T08:59:24.748Z,74.54
2023-11-23T09:01:58.784Z,75.14
2023-11-23T09:04:40.070Z,74.94
2023-11-23T09:07:12.355Z,73.50
2023-11-23T09:09:42.019Z,73.80
2023-11-23T09:12:09.272Z,74.54
2023-11-23T09:14:46.502Z,74.18
2023-11-23T09:17:21.802Z,74.38
2023-11-23T09:19:48.943Z,73.68
2023-11-23T09:22:15.974Z,73.49
2023-11-23T09:24:44.087Z,73.14
2023-11-23T09:27:12.362Z,72.69
2023-11-23T09:29:39.533Z,72.94
2023-11-23T09:32:06.881Z,72.81
2023-11-23T09:34:36.367Z,72.41
2023-11-23T09:37:03.309Z,73.74
2023-11-23T09:39:30.424Z,72.82
2023-11-23T09:42:00.024Z,72.22
2023-11-23T09:44:27.558Z,72.51
2023-11-23T09:46:56.781Z,71.99
2023-11-23T09:49:25.065Z,71.87
2023-11-23T09:51:53.396Z,72.49
2023-11-23T09:54:24.777Z,72.19
2023-11-23T09:56:52.210Z,71.89
2023-11-23T09:59:19.092Z,72.76
2023-11-23T10:01:49.202Z,71.49
2023-11-23T10:04:17.160Z,72.67
2023-11-23T10:06:44.400Z,73.08
2023-11-23T10:09:16.336Z,72.33
2023-11-23T10:11:44.151Z,72.98
2023-11-23T10:14:13.168Z,72.83
2023-11-23T10:16:40.219Z,71.92
2023-11-23T10:19:07.675Z,73.22
2023-11-23T10:21:35.665Z,72.91
2023-11-23T10:24:09.206Z,73.02
2023-11-23T10:26:36.346Z,72.49
2023-11-23T10:29:03.765Z,73.50
2023-11-23T10:31:32.335Z,73.64
2023-11-23T10:34:00.558Z,73.25
2023-11-23T10:36:28.713Z,73.88
2023-11-23T10:39:01.172Z,73.29
2023-11-23T10:41:28.653Z,72.44
2023-11-23T10:43:59.005Z,72.85
2023-11-23T10:46:26.298Z,72.94
2023-11-23T10:48:54.613Z,73.13
2023-11-23T10:51:25.372Z,73.48
2023-11-23T10:53:52.417Z,72.88
2023-11-23T10:56:28.058Z,74.23
2023-11-23T10:58:59.808Z,73.66
2023-11-23T11:01:28.026Z,74.17
2023-11-23T11:03:55.556Z,74.63
2023-11-23T11:06:24.354Z,74.46
2023-11-23T11:08:51.667Z,74.00
2023-11-23T11:11:23.944Z,74.86
2023-11-23T11:14:17.851Z,75.80
2023-11-23T11:16:44.974Z,75.02
2023-11-23T11:19:15.170Z,74.73
2023-11-23T11:21:48.460Z,75.51
2023-11-23T11:24:22.989Z,75.99
2023-11-23T11:26:51.186Z,75.37
2023-11-23T11:29:24.002Z,75.40
2023-11-23T11:31:51.092Z,75.11
2023-11-23T11:34:22.701Z,75.21
2023-11-23T11:37:03.473Z,74.63
2023-11-23T11:39:37.195Z,74.59
2023-11-23T11:42:08.694Z,75.38
2023-11-23T11:44:36.767Z,75.04
2023-11-23T11:47:09.375Z,74.89
2023-11-23T11:49:36.611Z,75.49
2023-11-23T11:52:03.898Z,75.76
2023-11-23T11:54:31.496Z,75.50
2023-11-23T11:56:58.513Z,75.94
2023-11-23T11:59:29.637Z,75.63
2023-11-23T12:01:58.025Z,76.10
2023-11-23T12:04:25.362Z,76.00
2023-11-23T12:06:53.974Z,75.79
2023-11-23T12:09:34.344Z,76.01
2023-11-23T12:12:11.931Z,76.14
2023-11-23T12:14:39.107Z,74.79
2023-11-23T12:17:14.093Z,75.04
2023-11-23T12:19:55.707Z,75.35
2023-11-23T12:22:28.454Z,76.45
2023-11-23T12:24:56.929Z,76.25
2023-11-23T12:27:26.448Z,76.03
2023-11-23T12:29:53.814Z,75.85
2023-11-23T12:32:20.622Z,75.88
2023-11-23T12:34:59.234Z,75.51
2023-11-23T12:37:26.592Z,75.09
2023-11-23T12:39:55.844Z,75.33
2023-11-23T12:42:24.078Z,76.54
2023-11-23T12:44:54.772Z,75.20
2023-11-23T12:47:22.615Z,75.64
2023-11-23T12:49:52.543Z,75.47
2023-11-23T12:52:29.405Z,75.55
2023-11-23T12:54:56.411Z,75.35
2023-11-23T12:57:23.449Z,75.42
2023-11-23T12:59:51.010Z,74.62
2023-11-23T13:02:20.811Z,75.23
2023-11-23T13:04:48.595Z,75.85
2023-11-23T13:07:15.804Z,76.07
2023-11-23T13:09:44.881Z,75.84
2023-11-23T13:12:15.195Z,75.65
2023-11-23T13:14:56.321Z,75.73
2023-11-23T13:17:28.292Z,75.67
2023-11-23T13:19:55.286Z,75.52
2023-11-23T13:22:24.343Z,75.82
2023-11-23T13:25:01.207Z,76.57
2023-11-23T13:28:30.021Z,76.74
2023-11-23T13:31:01.761Z,77.42
2023-11-23T13:33:39.907Z,76.75
2023-11-23T13:38:59.403Z,77.21
2023-11-23T13:39:24.600Z,77.59
2023-11-23T13:41:58.632Z,77.33
2023-11-23T13:44:43.238Z,77.19
2023-11-23T13:47:15.210Z,77.58
2023-11-23T13:49:59.367Z,77.34
2023-11-23T13:52:28.638Z,77.93
2023-11-23T13:55:01.489Z,77.82
2023-11-23T13:57:28.497Z,78.09
2023-11-23T13:59:55.553Z,77.50
2023-11-23T14:02:26.620Z,77.92
2023-11-23T14:04:53.940Z,77.61
2023-11-23T14:07:20.823Z,78.38
2023-11-23T14:09:49.951Z,78.10
2023-11-23T14:12:19.976Z,78.41
2023-11-23T14:14:49.513Z,77.97
2023-11-23T14:17:35.790Z,78.21
2023-11-23T14:20:13.645Z,78.66
2023-11-23T14:22:48.231Z,78.30
2023-11-23T14:25:18.306Z,77.63
2023-11-23T14:27:55.517Z,78.48
2023-11-23T14:30:38.862Z,79.44
2023-11-23T14:33:23.547Z,78.88
2023-11-23T14:35:54.634Z,79.78
2023-11-23T14:38:24.257Z,80.06
2023-11-23T14:40:52.431Z,79.95
2023-11-23T14:43:29.888Z,79.76
2023-11-23T14:46:00.925Z,79.61
2023-11-23T14:48:27.999Z,79.73
2023-11-23T14:51:04.402Z,79.78
2023-11-23T14:53:31.628Z,80.10
2023-11-23T14:56:02.758Z,79.87
2023-11-23T14:58:35.234Z,79.88
2023-11-23T15:01:02.325Z,80.19
2023-11-23T15:03:31.801Z,80.38
2023-11-23T15:06:00.630Z,80.49
2023-11-23T15:08:27.574Z,80.79
2023-11-23T15:10:57.166Z,80.53
2023-11-23T15:13:36.083Z,80.34
2023-11-23T15:16:07.473Z,80.58
2023-11-23T15:18:37.183Z,80.02
2023-11-23T15:21:08.100Z,80.88
2023-11-23T15:23:39.539Z,80.55
2023-11-23T15:26:10.006Z,80.39
2023-11-23T15:28:43.974Z,80.58
2023-11-23T15:31:11.820Z,80.88
2023-11-23T15:33:49.503Z,81.16
2023-11-23T15:36:23.685Z,81.66
2023-11-23T15:38:51.943Z,81.08
2023-11-23T15:41:19.373Z,81.08
2023-11-23T15:43:46.344Z,81.20
2023-11-23T15:46:13.447Z,81.37
2023-11-23T15:49:04.058Z,81.24
2023-11-23T15:52:08.693Z,81.80
2023-11-23T15:55:05.605Z,81.55
2023-11-23T15:58:32.028Z,81.58
2023-11-23T16:00:42.006Z,81.89
2023-11-23T16:03:15.974Z,81.97
2023-11-23T16:05:43.063Z,82.24
2023-11-23T16:08:26.702Z,81.83
2023-11-23T16:10:53.644Z,81.78
2023-11-23T16:13:23.349Z,82.27
2023-11-23T16:15:55.848Z,82.49
2023-11-23T16:18:22.910Z,82.20
2023-11-23T16:20:51.920Z,82.45
2023-11-23T16:23:18.974Z,82.52
2023-11-23T16:25:53.327Z,81.84
2023-11-23T16:28:21.276Z,82.68
2023-11-23T16:30:51.167Z,82.17
2023-11-23T16:33:30.384Z,82.41
2023-11-23T16:36:00.815Z,82.30
2023-11-23T16:45:36.131Z,82.24
2023-11-23T16:48:16.436Z,83.13
2023-11-23T16:50:47.399Z,83.18
2023-11-23T16:54:02.169Z,83.27
2023-11-23T16:56:36.018Z,83.63
2023-11-23T16:59:12.709Z,82.91
2023-11-23T17:01:42.870Z,82.77
2023-11-23T17:04:11.426Z,82.76
2023-11-23T17:06:43.846Z,83.67
2023-11-23T17:09:14.999Z,83.39
2023-11-23T17:11:54.081Z,82.96
2023-11-23T17:15:31.692Z,83.36
2023-11-23T17:19:00.186Z,83.18
2023-11-23T17:22:04.300Z,83.25
2023-11-23T17:25:16.584Z,83.51
2023-11-23T17:28:24.289Z,83.79
2023-11-23T17:31:03.741Z,83.99
2023-11-23T17:33:31.624Z,83.18
2023-11-23T17:35:58.436Z,83.32
2023-11-23T17:38:25.452Z,83.57
2023-11-23T17:40:52.070Z,83.38
2023-11-23T17:43:19.321Z,83.44
2023-11-23T17:45:48.448Z,83.28
2023-11-23T17:48:15.331Z,83.81
2023-11-23T17:50:41.931Z,83.95
2023-11-23T17:53:10.851Z,83.04
2023-11-23T17:55:37.414Z,83.52
2023-11-23T17:58:04.149Z,83.37
2023-11-23T18:00:31.618Z,83.28
2023-11-23T18:02:58.843Z,82.79
2023-11-23T18:05:44.834Z,83.47
2023-11-23T18:08:31.785Z,83.95
2023-11-23T18:11:18.938Z,83.70
2023-11-23T18:14:06.338Z,84.18
2023-11-23T18:16:53.429Z,84.22
2023-11-23T18:19:40.397Z,83.96
2023-11-23T18:22:27.355Z,84.17
2023-11-23T18:25:14.574Z,84.57
2023-11-23T18:28:01.521Z,84.70
2023-11-23T18:30:51.761Z,84.88
2023-11-23T18:33:38.757Z,84.60
2023-11-23T18:36:25.726Z,84.90
2023-11-23T18:39:14.968Z,84.63
2023-11-23T18:42:02.421Z,85.02
2023-11-23T18:44:49.453Z,85.18
2023-11-23T18:47:36.758Z,85.08
2023-11-23T18:50:24.451Z,85.45
2023-11-23T18:53:11.373Z,85.56
2023-11-23T18:55:58.344Z,85.59
2023-11-23T18:58:45.795Z,85.64
2023-11-23T19:01:33.425Z,85.89
2023-11-23T19:04:20.550Z,86.24
2023-11-23T19:07:07.622Z,86.33
2023-11-23T19:09:54.568Z,87.02
2023-11-23T19:12:51.587Z,88.28
2023-11-23T19:15:41.581Z,89.54
2023-11-23T19:18:28.778Z,90.50
2023-11-23T19:21:16.905Z,91.24
2023-11-23T19:24:04.292Z,91.99
2023-11-23T19:26:51.545Z,92.09
2023-11-23T19:29:45.880Z,91.93
2023-11-23T19:32:35.690Z,92.47
2023-11-23T19:35:23.171Z,93.04
2023-11-23T19:38:10.473Z,91.88
2023-11-23T19:41:02.418Z,92.27
2023-11-23T19:43:50.014Z,92.14
2023-11-23T19:46:37.458Z,91.47
2023-11-23T19:49:25.234Z,91.61
2023-11-23T19:52:26.141Z,91.14
2023-11-23T19:55:14.212Z,90.15
2023-11-23T19:58:01.483Z,90.50
2023-11-23T20:00:48.492Z,89.91
2023-11-23T20:03:35.515Z,89.55
2023-11-23T20:06:22.876Z,88.80
2023-11-23T20:09:11.065Z,88.66
2023-11-23T20:11:58.346Z,88.79
2023-11-23T20:14:45.299Z,87.97
2023-11-23T20:17:32.200Z,87.95
2023-11-23T20:20:19.184Z,87.73
2023-11-23T20:23:06.228Z,88.03
2023-11-23T20:25:53.168Z,87.30
2023-11-23T20:28:40.964Z,87.09
2023-11-23T20:31:29.451Z,87.02
2023-11-23T20:34:16.493Z,86.51
2023-11-23T20:37:04.119Z,86.30
2023-11-23T20:39:51.436Z,86.85
2023-11-23T20:42:40.143Z,87.13
2023-11-23T20:45:27.113Z,87.04
